createdAt,value
2023-01-11T00:00:31.055Z,4.96
2023-01-11T00:02:39.283Z,5.03
2023-01-11T00:04:47.746Z,5.15
2023-01-11T00:06:58.989Z,5.24
2023-01-11T00:09:06.967Z,5.21
2023-01-11T00:11:17.793Z,5.18
2023-01-11T00:13:26.119Z,5.22
2023-01-11T00:15:34.394Z,5.31
2023-01-11T00:17:42.753Z,5.23
2023-01-11T00:19:51.002Z,5.33
2023-01-11T00:22:02.107Z,5.37
2023-01-11T00:24:10.587Z,5.35
2023-01-11T00:26:18.912Z,5.34
2023-01-11T00:28:29.255Z,5.42
2023-01-11T00:30:39.147Z,5.40
2023-01-11T00:32:47.229Z,5.52
2023-01-11T00:34:55.225Z,5.52
2023-01-11T00:37:05.899Z,5.60
2023-01-11T00:39:14.078Z,5.72
2023-01-11T00:41:34.903Z,5.89
2023-01-11T00:43:55.497Z,5.76
2023-01-11T00:46:16.072Z,5.68
2023-01-11T00:48:24.099Z,5.72
2023-01-11T00:50:37.283Z,5.75
2023-01-11T00:52:48.302Z,5.78
2023-01-11T00:54:56.698Z,5.79
2023-01-11T00:57:06.605Z,5.74
2023-01-11T00:59:14.609Z,5.72
2023-01-11T01:01:22.734Z,5.83
2023-01-11T01:03:30.714Z,5.79
2023-01-11T01:05:41.170Z,5.83
2023-01-11T01:07:52.823Z,5.87
2023-01-11T01:10:00.964Z,5.90
2023-01-11T01:12:10.249Z,5.81
2023-01-11T01:14:29.559Z,6.11
2023-01-11T01:16:38.892Z,5.91
2023-01-11T01:18:46.817Z,6.08
2023-01-11T01:20:55.025Z,5.91
2023-01-11T01:23:06.007Z,6.07
2023-01-11T01:25:14.100Z,6.15
2023-01-11T01:27:22.048Z,6.10
2023-01-11T01:29:30.241Z,6.21
2023-01-11T01:31:38.491Z,6.22
2023-01-11T01:33:46.385Z,6.25
2023-01-11T01:36:02.437Z,6.26
2023-01-11T01:38:13.095Z,6.25
2023-01-11T01:40:22.911Z,6.34
2023-01-11T01:42:32.321Z,6.18
2023-01-11T01:44:58.080Z,6.27
2023-01-11T01:47:09.138Z,6.31
2023-01-11T01:49:19.274Z,6.23
2023-01-11T01:51:31.265Z,6.25
2023-01-11T01:53:46.043Z,6.16
2023-01-11T01:55:58.323Z,6.08
2023-01-11T01:58:13.363Z,6.18
2023-01-11T02:00:22.682Z,6.15
2023-01-11T02:02:28.572Z,5.97
2023-01-11T02:04:40.526Z,5.87
2023-01-11T02:06:49.037Z,5.87
2023-01-11T02:09:04.715Z,5.86
2023-01-11T02:11:29.782Z,5.83
2023-01-11T02:13:46.334Z,5.87
2023-01-11T02:16:08.152Z,5.88
2023-01-11T02:18:19.805Z,5.92
2023-01-11T02:20:38.697Z,5.91
2023-01-11T02:23:12.541Z,5.92
2023-01-11T02:25:47.587Z,5.97
2023-01-11T02:28:10.406Z,6.12
2023-01-11T02:30:27.400Z,6.17
2023-01-11T02:32:43.455Z,6.10
2023-01-11T02:35:03.038Z,6.11
2023-01-11T02:37:23.435Z,6.15
2023-01-11T02:39:35.788Z,6.17
2023-01-11T02:42:05.524Z,6.14
2023-01-11T02:44:44.131Z,6.04
2023-01-11T02:46:58.237Z,5.98
2023-01-11T02:49:15.792Z,5.99
2023-01-11T02:51:31.542Z,5.89
2023-01-11T02:53:42.816Z,5.81
2023-01-11T02:56:04.593Z,5.83
2023-01-11T02:58:15.403Z,5.82
2023-01-11T03:00:27.027Z,5.94
2023-01-11T03:02:35.276Z,5.94
2023-01-11T03:04:43.275Z,5.96
2023-01-11T03:06:52.012Z,5.96
2023-01-11T03:09:23.517Z,5.96
2023-01-11T03:11:57.792Z,6.20
2023-01-11T03:14:19.775Z,6.05
2023-01-11T03:16:38.855Z,6.05
2023-01-11T03:18:56.609Z,5.98
2023-01-11T03:21:17.544Z,6.00
2023-01-11T03:23:32.651Z,5.96
2023-01-11T03:26:05.126Z,5.97
2023-01-11T03:28:20.123Z,6.15
2023-01-11T03:30:36.309Z,6.02
2023-01-11T03:32:50.666Z,6.05
2023-01-11T03:35:11.157Z,5.98
2023-01-11T03:37:26.176Z,6.01
2023-01-11T03:39:39.015Z,6.05
2023-01-11T03:41:49.014Z,6.08
2023-01-11T03:43:59.574Z,6.06
2023-01-11T03:46:11.488Z,5.96
2023-01-11T03:48:27.281Z,5.90
2023-01-11T03:50:36.987Z,5.97
2023-01-11T03:52:46.553Z,5.87
2023-01-11T03:54:55.114Z,5.79
2023-01-11T03:57:08.907Z,5.71
2023-01-11T03:59:17.250Z,5.73
2023-01-11T04:01:25.451Z,5.61
2023-01-11T04:03:36.482Z,5.54
2023-01-11T04:05:47.812Z,5.50
2023-01-11T04:07:56.943Z,5.46
2023-01-11T04:10:05.042Z,5.41
2023-01-11T04:12:13.145Z,5.42
2023-01-11T04:14:21.119Z,5.44
2023-01-11T04:16:29.217Z,5.38
2023-01-11T04:18:39.977Z,5.36
2023-01-11T04:20:49.921Z,5.41
2023-01-11T04:22:58.138Z,5.44
2023-01-11T04:25:06.553Z,5.44
2023-01-11T04:27:14.641Z,5.46
2023-01-11T04:29:22.752Z,5.42
2023-01-11T04:31:30.814Z,5.50
2023-01-11T04:33:42.102Z,5.67
2023-01-11T04:35:50.797Z,5.64
2023-01-11T04:37:59.269Z,5.78
2023-01-11T04:40:08.438Z,5.85
2023-01-11T04:42:19.442Z,5.86
2023-01-11T04:44:28.074Z,5.76
2023-01-11T04:46:35.988Z,5.87
2023-01-11T04:48:46.543Z,5.96
2023-01-11T04:50:54.974Z,6.12
2023-01-11T04:53:03.128Z,6.13
2023-01-11T04:55:12.132Z,6.26
2023-01-11T04:57:20.206Z,6.25
2023-01-11T04:59:28.580Z,6.24
2023-01-11T05:01:36.924Z,6.39
2023-01-11T05:03:48.133Z,6.40
2023-01-11T05:05:59.771Z,6.53
2023-01-11T05:08:07.964Z,6.33
2023-01-11T05:10:16.617Z,6.40
2023-01-11T05:12:24.965Z,6.47
2023-01-11T05:14:33.227Z,6.44
2023-01-11T05:16:41.286Z,6.54
2023-01-11T05:18:55.351Z,6.52
2023-01-11T05:21:03.741Z,6.43
2023-01-11T05:23:11.785Z,6.41
2023-01-11T05:25:19.989Z,6.39
2023-01-11T05:27:27.976Z,6.39
2023-01-11T05:29:36.026Z,6.33
2023-01-11T05:31:44.177Z,6.18
2023-01-11T05:33:55.154Z,6.14
2023-01-11T05:36:04.486Z,6.08
2023-01-11T05:38:12.460Z,6.09
2023-01-11T05:40:21.046Z,6.03
2023-01-11T05:42:29.104Z,6.05
2023-01-11T05:44:49.764Z,6.05
2023-01-11T05:46:58.325Z,6.14
2023-01-11T05:49:09.609Z,6.17
2023-01-11T05:51:18.146Z,6.13
2023-01-11T05:53:27.294Z,6.18
2023-01-11T05:55:35.608Z,6.26
2023-01-11T05:57:44.362Z,6.36
2023-01-11T05:59:52.364Z,6.28
2023-01-11T06:02:00.430Z,6.24
2023-01-11T06:04:11.334Z,6.19
2023-01-11T06:06:20.935Z,6.14
2023-01-11T06:08:29.584Z,6.04
2023-01-11T06:10:37.830Z,5.98
2023-01-11T06:12:48.389Z,6.06
2023-01-11T06:14:56.461Z,5.93
2023-01-11T06:17:05.295Z,5.86
2023-01-11T06:19:16.070Z,5.93
2023-01-11T06:21:25.949Z,5.91
2023-01-11T06:23:36.138Z,5.88
2023-01-11T06:25:45.354Z,5.87
2023-01-11T06:27:53.400Z,5.86
2023-01-11T06:30:06.906Z,5.68
2023-01-11T06:32:16.960Z,5.71
2023-01-11T06:34:29.256Z,5.67
2023-01-11T06:36:37.286Z,5.75
2023-01-11T06:38:46.407Z,5.81
2023-01-11T06:40:56.930Z,5.74
2023-01-11T06:43:05.520Z,5.68
2023-01-11T06:45:15.112Z,5.65
2023-01-11T06:47:25.737Z,5.62
2023-01-11T06:49:36.511Z,5.61
2023-01-11T06:51:44.532Z,5.59
2023-01-11T06:53:53.067Z,5.60
2023-01-11T06:56:01.999Z,5.60
2023-01-11T06:58:10.465Z,5.65
2023-01-11T07:00:19.248Z,5.63
2023-01-11T07:02:27.287Z,5.65
2023-01-11T07:04:38.020Z,5.60
2023-01-11T07:06:46.071Z,5.52
2023-01-11T07:08:54.296Z,5.47
2023-01-11T07:11:02.411Z,5.47
2023-01-11T07:13:10.400Z,5.41
2023-01-11T07:15:19.969Z,5.36
2023-01-11T07:17:28.626Z,5.32
2023-01-11T07:19:55.566Z,5.34
2023-01-11T07:22:03.527Z,5.32
2023-01-11T07:24:11.597Z,5.43
2023-01-11T07:26:19.711Z,5.45
2023-01-11T07:28:31.014Z,5.53
2023-01-11T07:30:56.894Z,5.56
2023-01-11T07:33:07.773Z,5.66
2023-01-11T07:35:18.538Z,5.72
2023-01-11T07:37:29.621Z,5.75
2023-01-11T07:39:43.299Z,5.80
2023-01-11T07:42:04.178Z,5.86
2023-01-11T07:44:12.120Z,5.87
2023-01-11T07:46:20.449Z,5.89
2023-01-11T07:48:28.449Z,5.91
2023-01-11T07:50:39.841Z,5.96
2023-01-11T07:52:53.203Z,6.15
2023-01-11T07:55:02.929Z,6.22
2023-01-11T07:57:11.501Z,6.39
2023-01-11T07:59:19.654Z,6.45
2023-01-11T08:01:28.105Z,6.57
2023-01-11T08:03:36.385Z,6.54
2023-01-11T08:05:47.026Z,6.58
2023-01-11T08:07:55.009Z,6.58
2023-01-11T08:10:03.582Z,6.60
2023-01-11T08:12:24.085Z,6.64
2023-01-11T08:14:44.505Z,6.80
2023-01-11T08:16:52.952Z,6.78
2023-01-11T08:19:03.519Z,6.84
2023-01-11T08:21:14.927Z,6.95
2023-01-11T08:23:23.108Z,7.02
2023-01-11T08:25:31.371Z,7.12
2023-01-11T08:27:40.742Z,7.20
2023-01-11T08:29:50.844Z,7.25
2023-01-11T08:31:59.506Z,7.35
2023-01-11T08:34:07.498Z,7.52
2023-01-11T08:36:18.345Z,7.47
2023-01-11T08:38:26.327Z,7.48
2023-01-11T08:40:34.425Z,7.44
2023-01-11T08:42:42.766Z,7.61
2023-01-11T08:44:50.718Z,7.60
2023-01-11T08:46:59.197Z,7.62
2023-01-11T08:49:12.289Z,7.74
2023-01-11T08:51:23.323Z,7.82
2023-01-11T08:53:31.313Z,7.82
2023-01-11T08:55:41.912Z,7.85
2023-01-11T08:57:50.352Z,7.77
2023-01-11T08:59:59.007Z,7.70
2023-01-11T09:02:10.365Z,7.81
2023-01-11T09:04:25.260Z,7.90
2023-01-11T09:06:36.303Z,7.89
2023-01-11T09:08:46.070Z,7.92
2023-01-11T09:10:56.761Z,7.83
2023-01-11T09:13:05.181Z,7.84
2023-01-11T09:15:15.838Z,7.83
2023-01-11T09:17:23.965Z,7.93
2023-01-11T09:19:33.583Z,8.06
2023-01-11T09:21:44.416Z,8.01
2023-01-11T09:23:52.671Z,8.09
2023-01-11T09:26:00.510Z,8.23
2023-01-11T09:28:08.549Z,8.31
2023-01-11T09:30:20.299Z,8.29
2023-01-11T09:32:28.192Z,8.28
2023-01-11T09:34:36.231Z,8.53
2023-01-11T09:36:48.933Z,8.56
2023-01-11T09:39:00.460Z,8.41
2023-01-11T09:41:23.657Z,8.40
2023-01-11T09:43:33.473Z,8.42
2023-01-11T09:45:46.952Z,8.49
2023-01-11T09:48:03.595Z,8.53
2023-01-11T09:50:18.858Z,8.56
2023-01-11T09:52:36.400Z,8.55
2023-01-11T09:54:45.487Z,8.61
2023-01-11T09:57:02.389Z,8.74
2023-01-11T09:59:20.935Z,8.74
2023-01-11T10:01:36.597Z,8.78
2023-01-11T10:04:26.028Z,8.79
2023-01-11T10:06:44.428Z,8.80
2023-01-11T10:18:23.743Z,8.93
2023-01-11T10:18:37.592Z,8.94
2023-01-11T10:19:40.596Z,9.03
2023-01-11T10:21:54.770Z,8.95
2023-01-11T10:24:11.666Z,8.92
2023-01-11T10:26:28.539Z,8.99
2023-01-11T10:28:47.061Z,8.94
2023-01-11T10:31:11.380Z,9.00
2023-01-11T10:33:38.595Z,9.02
2023-01-11T10:36:10.736Z,8.96
2023-01-11T10:38:45.008Z,9.02
2023-01-11T10:41:08.563Z,9.19
2023-01-11T10:43:22.760Z,9.27
2023-01-11T10:45:40.130Z,9.35
2023-01-11T10:48:01.520Z,9.52
2023-01-11T10:50:22.391Z,9.51
2023-01-11T10:52:40.468Z,9.84
2023-01-11T10:54:54.798Z,9.68
2023-01-11T10:57:16.052Z,9.70
2023-01-11T10:59:41.289Z,9.72
2023-01-11T11:01:57.479Z,9.91
2023-01-11T11:04:25.616Z,9.81
2023-01-11T11:06:42.594Z,9.80
2023-01-11T11:08:57.222Z,9.90
2023-01-11T11:11:10.996Z,9.83
2023-01-11T11:13:30.120Z,9.85
2023-01-11T11:15:42.039Z,9.90
2023-01-11T11:17:54.215Z,9.86
2023-01-11T11:20:02.141Z,9.91
2023-01-11T11:22:12.791Z,9.99
2023-01-11T11:24:27.939Z,9.85
2023-01-11T11:26:39.063Z,9.82
2023-01-11T11:29:11.588Z,9.96
2023-01-11T11:31:19.793Z,9.87
2023-01-11T11:33:34.860Z,9.96
2023-01-11T11:35:46.437Z,10.08
2023-01-11T11:37:57.684Z,10.01
2023-01-11T11:40:07.366Z,9.93
2023-01-11T11:42:21.330Z,10.04
2023-01-11T11:44:31.985Z,10.23
2023-01-11T11:46:40.069Z,10.32
2023-01-11T11:49:08.663Z,10.46
2023-01-11T11:51:23.439Z,10.62
2023-01-11T11:53:39.185Z,10.65
2023-01-11T11:55:47.098Z,10.60
2023-01-11T11:57:55.898Z,10.73
2023-01-11T12:00:10.149Z,10.76
2023-01-11T12:02:27.362Z,10.61
2023-01-11T12:04:48.869Z,10.73
2023-01-11T12:07:09.786Z,10.73
2023-01-11T12:09:31.255Z,10.59
2023-01-11T12:11:43.050Z,10.56
2023-01-11T12:14:03.781Z,10.55
2023-01-11T12:16:25.665Z,10.51
2023-01-11T12:18:41.610Z,10.57
2023-01-11T12:20:49.716Z,10.64
2023-01-11T12:23:15.281Z,10.39
2023-01-11T12:25:27.007Z,10.40
2023-01-11T12:27:43.638Z,10.46
2023-01-11T12:30:08.430Z,10.55
2023-01-11T12:32:46.351Z,10.38
2023-01-11T12:35:16.973Z,10.33
2023-01-11T12:37:37.996Z,10.33
2023-01-11T12:39:52.874Z,10.34
2023-01-11T12:42:17.942Z,10.27
2023-01-11T12:44:55.110Z,10.50
2023-01-11T12:47:21.400Z,10.58
2023-01-11T12:49:41.516Z,10.51
2023-01-11T12:52:06.600Z,10.46
2023-01-11T12:54:40.548Z,10.29
2023-01-11T12:57:07.347Z,10.35
2023-01-11T12:59:30.194Z,10.26
2023-01-11T13:01:43.944Z,10.17
2023-01-11T13:04:21.619Z,10.21
2023-01-11T13:06:38.705Z,10.05
2023-01-11T13:09:00.470Z,10.09
2023-01-11T13:11:35.315Z,9.98
2023-01-11T13:13:56.316Z,10.04
2023-01-11T13:16:13.491Z,9.94
2023-01-11T13:18:32.973Z,9.88
2023-01-11T13:21:00.462Z,9.97
2023-01-11T13:23:18.652Z,10.01
2023-01-11T13:25:30.329Z,9.83
2023-01-11T13:27:38.369Z,9.80
2023-01-11T13:29:48.714Z,9.93
2023-01-11T13:32:00.472Z,9.84
2023-01-11T13:34:17.364Z,9.85
2023-01-11T13:36:28.763Z,9.83
2023-01-11T13:38:46.814Z,9.91
2023-01-11T13:40:59.846Z,9.76
2023-01-11T13:43:13.054Z,9.72
2023-01-11T13:45:25.504Z,9.66
2023-01-11T13:47:41.222Z,9.84
2023-01-11T13:49:59.704Z,9.70
2023-01-11T13:52:15.268Z,9.90
2023-01-11T13:54:30.443Z,9.70
2023-01-11T13:56:44.298Z,9.82
2023-01-11T13:58:58.976Z,9.71
2023-01-11T14:01:12.331Z,9.74
2023-01-11T14:03:32.108Z,9.79
2023-01-11T14:05:47.658Z,9.84
2023-01-11T14:08:10.303Z,9.62
2023-01-11T14:10:33.751Z,9.54
2023-01-11T14:12:58.991Z,9.57
2023-01-11T14:15:31.580Z,9.64
2023-01-11T14:17:58.875Z,9.65
2023-01-11T14:20:17.600Z,9.85
2023-01-11T14:22:32.976Z,9.87
2023-01-11T14:24:47.577Z,9.71
2023-01-11T14:27:12.417Z,9.83
2023-01-11T14:29:40.304Z,9.82
2023-01-11T14:32:14.600Z,9.67
2023-01-11T14:34:58.811Z,9.71
2023-01-11T14:37:45.915Z,9.80
2023-01-11T14:40:26.504Z,9.79
2023-01-11T14:43:06.134Z,9.86
2023-01-11T14:45:27.123Z,9.96
2023-01-11T14:47:47.941Z,9.91
2023-01-11T14:50:06.859Z,9.92
2023-01-11T14:52:34.434Z,9.78
2023-01-11T14:54:48.239Z,9.86
2023-01-11T14:56:58.030Z,9.75
2023-01-11T14:59:24.084Z,9.75
2023-01-11T15:01:32.186Z,9.62
2023-01-11T15:03:52.160Z,9.55
2023-01-11T15:06:03.820Z,9.59
2023-01-11T15:08:25.289Z,9.64
2023-01-11T15:10:50.333Z,9.59
2023-01-11T15:12:59.548Z,9.64
2023-01-11T15:15:19.987Z,9.62
2023-01-11T15:17:42.719Z,9.51
2023-01-11T15:19:53.366Z,9.41
2023-01-11T15:22:03.413Z,9.51
2023-01-11T15:24:26.325Z,9.35
2023-01-11T15:26:34.497Z,9.13
2023-01-11T15:28:49.860Z,9.15
2023-01-11T15:31:00.473Z,9.13
2023-01-11T15:33:32.313Z,9.24
2023-01-11T15:35:40.336Z,9.14
2023-01-11T15:37:57.867Z,9.08
2023-01-11T15:40:12.779Z,9.05
2023-01-11T15:43:11.416Z,8.83
2023-01-11T15:46:02.213Z,8.94
2023-01-11T15:48:28.501Z,9.03
2023-01-11T15:50:54.729Z,8.83
2023-01-11T15:53:41.239Z,8.72
2023-01-11T15:56:15.837Z,8.63
2023-01-11T15:59:11.376Z,8.68
2023-01-11T16:01:28.397Z,8.76
2023-01-11T16:04:08.147Z,8.65
2023-01-11T16:06:24.203Z,8.63
2023-01-11T16:08:41.458Z,8.55
2023-01-11T16:11:03.518Z,8.56
2023-01-11T16:13:41.982Z,8.47
2023-01-11T16:16:03.268Z,8.55
2023-01-11T16:18:17.565Z,8.41
2023-01-11T16:20:51.538Z,8.40
2023-01-11T16:23:03.029Z,8.35
2023-01-11T16:25:17.569Z,8.37
2023-01-11T16:27:28.689Z,8.45
2023-01-11T16:29:38.726Z,8.38
2023-01-11T16:31:58.941Z,8.50
2023-01-11T16:34:20.717Z,8.43
2023-01-11T16:36:31.103Z,8.54
2023-01-11T16:38:47.345Z,8.36
2023-01-11T16:40:58.697Z,8.35
2023-01-11T16:43:11.257Z,8.50
2023-01-11T16:45:25.133Z,8.41
2023-01-11T16:47:33.015Z,8.17
2023-01-11T16:49:42.383Z,8.11
2023-01-11T16:51:59.488Z,8.17
2023-01-11T16:54:07.967Z,8.04
2023-01-11T16:56:19.590Z,7.99
2023-01-11T16:58:32.145Z,8.05
2023-01-11T17:00:43.465Z,7.95
2023-01-11T17:02:51.879Z,7.87
2023-01-11T17:05:00.728Z,8.02
2023-01-11T17:07:23.099Z,7.85
2023-01-11T17:09:30.930Z,7.73
2023-01-11T17:11:47.236Z,7.76
2023-01-11T17:14:31.118Z,7.61
2023-01-11T17:16:42.594Z,7.60
2023-01-11T17:18:51.040Z,7.61
2023-01-11T17:21:02.607Z,7.58
2023-01-11T17:23:18.371Z,7.51
2023-01-11T17:25:41.086Z,7.47
2023-01-11T17:27:57.874Z,7.51
2023-01-11T17:30:07.811Z,7.40
2023-01-11T17:32:21.335Z,7.36
2023-01-11T17:34:35.036Z,7.39
2023-01-11T17:36:45.028Z,7.63
2023-01-11T17:38:55.898Z,7.49
2023-01-11T17:41:32.726Z,7.40
2023-01-11T17:43:53.165Z,7.46
2023-01-11T17:46:02.270Z,7.44
2023-01-11T17:48:16.305Z,7.27
2023-01-11T17:50:28.130Z,7.35
2023-01-11T17:52:53.820Z,7.43
2023-01-11T17:55:21.600Z,7.43
2023-01-11T17:57:29.558Z,7.56
2023-01-11T17:59:37.578Z,7.45
2023-01-11T18:01:49.867Z,7.63
2023-01-11T18:03:59.865Z,7.59
2023-01-11T18:06:14.128Z,7.38
2023-01-11T18:08:23.892Z,7.41
2023-01-11T18:10:39.329Z,7.35
2023-01-11T18:12:47.842Z,7.50
2023-01-11T18:14:59.767Z,7.50
2023-01-11T18:17:10.158Z,7.55
2023-01-11T18:19:27.218Z,7.43
2023-01-11T18:21:43.054Z,7.47
2023-01-11T18:23:51.368Z,7.39
2023-01-11T18:26:34.965Z,7.37
2023-01-11T18:28:45.963Z,7.39
2023-01-11T18:30:58.041Z,7.46
2023-01-11T18:33:13.207Z,7.52
2023-01-11T18:35:21.333Z,7.35
2023-01-11T18:37:29.512Z,7.25
2023-01-11T18:39:38.523Z,7.27
2023-01-11T18:42:11.012Z,7.00
2023-01-11T18:44:21.544Z,6.88
2023-01-11T18:46:29.956Z,6.85
2023-01-11T18:48:38.840Z,6.66
2023-01-11T18:50:48.382Z,6.60
2023-01-11T18:52:57.873Z,6.54
2023-01-11T18:55:07.220Z,6.46
2023-01-11T18:57:15.118Z,6.46
2023-01-11T18:59:28.928Z,6.40
2023-01-11T19:01:52.743Z,6.23
2023-01-11T19:04:07.656Z,6.19
2023-01-11T19:06:19.637Z,6.23
2023-01-11T19:08:30.150Z,6.26
2023-01-11T19:10:40.794Z,6.15
2023-01-11T19:12:49.330Z,6.25
2023-01-11T19:15:00.258Z,6.25
2023-01-11T19:17:10.425Z,6.16
2023-01-11T19:19:18.906Z,6.17
2023-01-11T19:21:26.806Z,6.00
2023-01-11T19:23:35.329Z,5.98
2023-01-11T19:25:43.142Z,6.06
2023-01-11T19:27:51.690Z,6.21
2023-01-11T19:30:03.077Z,6.04
2023-01-11T19:32:11.099Z,5.99
2023-01-11T19:34:19.153Z,5.99
2023-01-11T19:36:29.238Z,5.91
2023-01-11T19:38:39.903Z,5.87
2023-01-11T19:40:50.349Z,6.02
2023-01-11T19:42:58.708Z,6.05
2023-01-11T19:45:10.798Z,6.16
2023-01-11T19:47:19.007Z,6.23
2023-01-11T19:49:27.496Z,6.24
2023-01-11T19:51:35.440Z,6.18
2023-01-11T19:53:43.435Z,6.15
2023-01-11T19:55:51.383Z,6.15
2023-01-11T19:57:59.236Z,6.24
2023-01-11T20:00:14.375Z,6.28
2023-01-11T20:02:24.617Z,6.26
2023-01-11T20:04:35.171Z,6.13
2023-01-11T20:06:50.285Z,5.99
2023-01-11T20:08:58.658Z,6.02
2023-01-11T20:11:10.947Z,5.75
2023-01-11T20:13:19.040Z,5.79
2023-01-11T20:15:29.657Z,5.60
2023-01-11T20:17:38.634Z,5.75
2023-01-11T20:19:48.086Z,5.68
2023-01-11T20:21:56.615Z,5.66
2023-01-11T20:24:04.828Z,5.60
2023-01-11T20:26:15.421Z,5.60
2023-01-11T20:28:24.035Z,5.58
2023-01-11T20:30:34.922Z,5.45
2023-01-11T20:32:42.883Z,5.55
2023-01-11T20:34:50.906Z,5.47
2023-01-11T20:36:58.997Z,5.35
2023-01-11T20:39:07.343Z,5.30
2023-01-11T20:41:37.989Z,5.26
2023-01-11T20:43:46.001Z,5.20
2023-01-11T20:46:00.541Z,5.08
2023-01-11T20:48:09.403Z,5.01
2023-01-11T20:50:17.811Z,5.15
2023-01-11T20:52:25.724Z,5.30
2023-01-11T20:54:33.871Z,5.18
2023-01-11T20:56:42.466Z,5.09
2023-01-11T20:58:51.616Z,4.98
2023-01-11T21:01:06.513Z,5.13
2023-01-11T21:03:14.317Z,5.05
2023-01-11T21:05:26.882Z,4.95
2023-01-11T21:07:38.236Z,4.96
2023-01-11T21:09:46.185Z,4.85
2023-01-11T21:11:56.001Z,4.75
2023-01-11T21:14:07.852Z,4.70
2023-01-11T21:16:22.680Z,4.62
2023-01-11T21:18:33.634Z,4.69
2023-01-11T21:20:41.609Z,4.66
2023-01-11T21:22:49.711Z,4.60
2023-01-11T21:24:58.121Z,4.65
2023-01-11T21:27:05.959Z,4.53
2023-01-11T21:29:14.752Z,4.56
2023-01-11T21:31:25.770Z,4.44
2023-01-11T21:33:33.687Z,4.38
2023-01-11T21:35:41.815Z,4.39
2023-01-11T21:37:49.765Z,4.32
2023-01-11T21:39:57.685Z,4.45
2023-01-11T21:42:05.825Z,4.35
2023-01-11T21:44:16.438Z,4.53
2023-01-11T21:46:27.239Z,4.66
2023-01-11T21:48:34.918Z,4.60
2023-01-11T21:50:42.814Z,4.55
2023-01-11T21:52:50.691Z,4.41
2023-01-11T21:54:58.997Z,4.33
2023-01-11T21:57:08.243Z,4.31
2023-01-11T21:59:17.171Z,4.42
2023-01-11T22:01:27.686Z,4.47
2023-01-11T22:03:35.713Z,4.40
2023-01-11T22:05:43.507Z,4.42
2023-01-11T22:07:52.187Z,4.31
2023-01-11T22:10:04.813Z,4.26
2023-01-11T22:12:13.187Z,4.22
2023-01-11T22:14:21.232Z,4.20
2023-01-11T22:16:32.949Z,4.33
2023-01-11T22:18:41.508Z,4.39
2023-01-11T22:20:49.412Z,4.26
2023-01-11T22:22:58.011Z,4.36
2023-01-11T22:25:06.683Z,4.31
2023-01-11T22:27:14.601Z,4.24
2023-01-11T22:29:23.540Z,4.29
2023-01-11T22:31:36.101Z,4.30
2023-01-11T22:33:43.914Z,4.45
2023-01-11T22:35:57.575Z,4.31
2023-01-11T22:38:05.806Z,4.19
2023-01-11T22:40:15.485Z,4.17
2023-01-11T22:42:23.680Z,4.26
2023-01-11T22:44:31.453Z,4.13
2023-01-11T22:46:42.121Z,4.23
2023-01-11T22:48:50.935Z,4.12
2023-01-11T22:50:58.671Z,4.20
2023-01-11T22:53:06.548Z,4.16
2023-01-11T22:55:14.510Z,4.09
2023-01-11T22:57:22.521Z,4.06
2023-01-11T22:59:31.219Z,4.11
2023-01-11T23:01:46.289Z,4.13
2023-01-11T23:03:55.719Z,4.13
2023-01-11T23:06:06.109Z,4.19
2023-01-11T23:08:14.234Z,4.22
2023-01-11T23:10:22.339Z,4.18
2023-01-11T23:12:42.523Z,4.16
2023-01-11T23:14:50.633Z,4.07
2023-01-11T23:17:03.665Z,4.07
2023-01-11T23:19:12.706Z,3.99
2023-01-11T23:21:20.642Z,3.93
2023-01-11T23:23:30.157Z,3.84
2023-01-11T23:25:38.210Z,3.84
2023-01-11T23:27:46.473Z,3.76
2023-01-11T23:29:54.389Z,3.67
2023-01-11T23:32:04.855Z,3.63
2023-01-11T23:34:16.219Z,3.62
2023-01-11T23:36:25.829Z,3.83
2023-01-11T23:38:35.573Z,3.72
2023-01-11T23:40:56.206Z,3.63
2023-01-11T23:43:03.948Z,3.73
2023-01-11T23:45:12.910Z,3.74
2023-01-11T23:47:25.243Z,3.64
2023-01-11T23:49:34.675Z,3.79
2023-01-11T23:51:42.525Z,3.71
2023-01-11T23:53:50.395Z,3.82
2023-01-11T23:55:58.806Z,3.72
2023-01-11T23:58:12.289Z,3.70
